Главная страница
METAR-TAF:

METAR-TAF

Аэропорты :

Багдад, Ирак

широта: 33-15-45N, долгота: 44-14-04E, высота над уровнем моря: 35 м

Текущие метеонаблюдения

Эта сводка был подготовлена 21 минут назад, в 02:00 UTC
Ветер 11 Узел от восточно-юго-восточный
Температура 12°C
Влажность 50%
Давление 1012 hPa
Видимость: 7000 м

METAR: ORBI 230200Z 12011KT 7000 NSC 12/02 Q1012 NOSIG

Время: 05:21 (02:21 UTC)

Прогноз

Эта сводка был подготовлена 4 часа и 21 минут назад, в 22:00 UTC
Прогноз действительный с 23-го 24 UTC до 24-го 24 UTC
Ветер 10 Узел от восточно-юго-восточный
Видимость: 8000 м

TAF: ORBI 222200Z 2324/2424 12010KT 8000 NSC

Метеонаблюдения и прогнозы для более 4000 аэропортов (сводки METAR и TAF).

Имеющиеся станции представлены на карте желтыми и красными точками.

Чтобы увидеть название станции, наведите на нее мышь.

Затем щелкните, чтобы увидеть метеонаблюдения и метеопрогнозы.

Управление картой: чтобы увеличить масштаб, щелкните зеленые кнопки с черным крестиком; чтобы уменьшить масштаб, щелкните зеленую кнопку с тире; для просмотра соседних карт щелкайте зеленые стрелки.


METAR-TAF: